createdAt,value
2018-09-09T00:01:47.720Z,67.63
2018-09-09T00:04:16.263Z,67.63
2018-09-09T00:06:43.792Z,67.56
2018-09-09T00:09:11.362Z,68.17
2018-09-09T00:11:39.228Z,67.53
2018-09-09T00:14:07.227Z,66.50
2018-09-09T00:16:35.171Z,67.20
2018-09-09T00:19:03.176Z,67.20
2018-09-09T00:21:30.778Z,66.82
2018-09-09T00:23:58.378Z,67.19
2018-09-09T00:26:26.046Z,66.48
2018-09-09T00:28:53.712Z,66.77
2018-09-09T00:31:21.248Z,66.64
2018-09-09T00:33:48.802Z,66.42
2018-09-09T00:36:16.355Z,65.74
2018-09-09T00:38:43.935Z,66.57
2018-09-09T00:41:12.445Z,65.38
2018-09-09T00:43:39.962Z,65.73
2018-09-09T00:46:07.520Z,65.86
2018-09-09T00:48:35.035Z,65.58
2018-09-09T00:51:17.490Z,67.22
2018-09-09T00:53:45.084Z,66.45
2018-09-09T00:56:12.657Z,66.01
2018-09-09T00:58:40.329Z,66.10
2018-09-09T01:01:07.838Z,66.62
2018-09-09T01:03:35.395Z,65.99
2018-09-09T01:06:02.942Z,65.65
2018-09-09T01:08:30.487Z,66.02
2018-09-09T01:10:58.027Z,66.11
2018-09-09T01:13:25.564Z,65.79
2018-09-09T01:15:53.141Z,65.03
2018-09-09T01:18:20.683Z,65.25
2018-09-09T01:20:48.243Z,65.61
2018-09-09T01:23:15.762Z,65.97
2018-09-09T01:25:43.288Z,65.20
2018-09-09T01:28:12.889Z,65.37
2018-09-09T01:30:40.436Z,65.16
2018-09-09T01:33:07.954Z,65.84
2018-09-09T01:35:35.516Z,64.88
2018-09-09T01:38:03.171Z,65.25
2018-09-09T01:40:30.740Z,65.27
2018-09-09T01:42:58.309Z,65.20
2018-09-09T01:45:25.830Z,65.04
2018-09-09T01:47:53.380Z,67.07
2018-09-09T01:50:20.952Z,66.37
2018-09-09T01:52:50.549Z,66.17
2018-09-09T01:55:18.073Z,66.88
2018-09-09T01:57:45.670Z,66.74
2018-09-09T02:00:13.198Z,66.37
2018-09-09T02:02:40.706Z,66.23
2018-09-09T02:05:12.175Z,67.38
2018-09-09T02:07:39.713Z,65.77
2018-09-09T02:10:07.296Z,65.13
2018-09-09T02:12:34.835Z,65.23
2018-09-09T02:15:02.418Z,65.24
2018-09-09T02:17:29.959Z,66.31
2018-09-09T02:19:57.526Z,65.86
2018-09-09T02:22:25.092Z,65.71
2018-09-09T02:24:52.635Z,63.92
2018-09-09T02:27:20.207Z,64.84
2018-09-09T02:29:47.799Z,65.76
2018-09-09T02:32:15.392Z,65.27
2018-09-09T02:34:42.980Z,65.55
2018-09-09T02:37:10.514Z,65.50
2018-09-09T02:39:38.066Z,65.00
2018-09-09T02:42:05.626Z,65.03
2018-09-09T02:44:33.135Z,65.54
2018-09-09T02:47:00.647Z,65.23
2018-09-09T02:49:28.371Z,65.63
2018-09-09T02:51:55.964Z,65.13
2018-09-09T02:54:23.556Z,64.16
2018-09-09T02:56:51.096Z,65.63
2018-09-09T02:59:18.636Z,68.88
2018-09-09T03:01:46.218Z,66.61
2018-09-09T03:04:13.768Z,66.09
2018-09-09T03:06:41.393Z,66.20
2018-09-09T03:09:08.943Z,65.61
2018-09-09T03:11:36.566Z,65.60
2018-09-09T03:14:04.088Z,66.47
2018-09-09T03:16:32.780Z,65.60
2018-09-09T03:19:05.133Z,65.50
2018-09-09T03:21:34.736Z,65.65
2018-09-09T03:24:04.390Z,65.02
2018-09-09T03:26:31.986Z,65.33
2018-09-09T03:28:59.604Z,64.49
2018-09-09T03:31:27.367Z,65.89
2018-09-09T03:33:56.036Z,66.35
2018-09-09T03:36:29.070Z,65.82
2018-09-09T03:38:56.693Z,65.97
2018-09-09T03:41:24.216Z,65.47
2018-09-09T03:43:51.791Z,65.13
2018-09-09T03:46:19.356Z,65.28
2018-09-09T03:48:46.945Z,65.58
2018-09-09T03:51:20.516Z,65.46
2018-09-09T03:53:48.103Z,65.27
2018-09-09T03:56:15.628Z,64.34
2018-09-09T03:58:43.140Z,64.50
2018-09-09T04:01:10.712Z,64.80
2018-09-09T04:03:38.257Z,63.81
2018-09-09T04:06:05.786Z,63.74
2018-09-09T04:08:33.369Z,64.46
2018-09-09T04:11:00.981Z,64.46
2018-09-09T04:13:28.518Z,64.93
2018-09-09T04:15:56.056Z,65.22
2018-09-09T04:18:23.626Z,65.27
2018-09-09T04:20:51.167Z,64.53
2018-09-09T04:23:18.717Z,64.32
2018-09-09T04:25:49.529Z,64.49
2018-09-09T04:28:17.110Z,64.47
2018-09-09T04:30:44.706Z,64.61
2018-09-09T04:33:12.269Z,64.73
2018-09-09T04:35:39.811Z,64.50
2018-09-09T04:38:07.408Z,64.73
2018-09-09T04:40:34.924Z,64.68
2018-09-09T04:43:09.151Z,64.77
2018-09-09T04:45:36.676Z,64.73
2018-09-09T04:48:04.254Z,65.07
2018-09-09T04:50:31.837Z,64.97
2018-09-09T04:52:59.346Z,65.24
2018-09-09T04:55:26.902Z,65.33
2018-09-09T04:57:54.466Z,65.47
2018-09-09T05:00:22.031Z,65.19
2018-09-09T05:02:49.544Z,64.79
2018-09-09T05:05:17.113Z,65.05
2018-09-09T05:07:53.252Z,65.21
2018-09-09T05:10:20.770Z,65.01
2018-09-09T05:12:48.284Z,64.50
2018-09-09T05:15:15.873Z,63.99
2018-09-09T05:17:43.410Z,64.18
2018-09-09T05:20:10.971Z,64.59
2018-09-09T05:22:38.521Z,63.96
2018-09-09T05:25:09.170Z,64.68
2018-09-09T05:27:36.711Z,64.86
2018-09-09T05:30:04.243Z,64.94
2018-09-09T05:32:31.827Z,64.00
2018-09-09T05:34:59.407Z,64.95
2018-09-09T05:37:27.098Z,64.56
2018-09-09T05:39:54.635Z,64.58
2018-09-09T05:42:22.307Z,63.09
2018-09-09T05:44:49.909Z,64.60
2018-09-09T05:47:17.394Z,64.38
2018-09-09T05:49:45.295Z,64.62
2018-09-09T05:52:13.060Z,65.27
2018-09-09T05:54:40.615Z,65.38
2018-09-09T05:57:19.601Z,65.40
2018-09-09T05:59:47.183Z,65.42
2018-09-09T06:02:14.774Z,65.28
2018-09-09T06:04:42.298Z,65.26
2018-09-09T06:07:09.867Z,65.22
2018-09-09T06:09:37.441Z,64.50
2018-09-09T06:12:08.157Z,65.82
2018-09-09T06:14:35.720Z,66.21
2018-09-09T06:17:03.280Z,65.76
2018-09-09T06:19:30.831Z,64.32
2018-09-09T06:21:58.387Z,64.31
2018-09-09T06:24:25.940Z,66.35
2018-09-09T06:26:55.572Z,65.68
2018-09-09T06:29:23.100Z,65.89
2018-09-09T06:31:52.686Z,64.67
2018-09-09T06:34:20.255Z,64.67
2018-09-09T06:36:47.773Z,64.36
2018-09-09T06:39:15.359Z,63.68
2018-09-09T06:41:42.921Z,64.04
2018-09-09T06:44:12.391Z,64.59
2018-09-09T06:46:39.963Z,64.39
2018-09-09T06:49:07.521Z,64.71
2018-09-09T06:51:41.883Z,63.97
2018-09-09T06:54:09.445Z,63.99
2018-09-09T06:56:37.006Z,64.50
2018-09-09T06:59:04.556Z,64.81
2018-09-09T07:01:33.270Z,64.15
2018-09-09T07:04:00.837Z,64.16
2018-09-09T07:06:28.392Z,65.39
2018-09-09T07:08:55.915Z,64.48
2018-09-09T07:11:27.880Z,65.93
2018-09-09T07:13:55.300Z,65.33
2018-09-09T07:16:22.857Z,65.72
2018-09-09T07:18:54.669Z,65.07
2018-09-09T07:21:22.227Z,64.89
2018-09-09T07:23:49.797Z,64.70
2018-09-09T07:26:18.039Z,65.15
2018-09-09T07:28:45.613Z,64.34
2018-09-09T07:31:13.174Z,64.04
2018-09-09T07:33:40.720Z,64.42
2018-09-09T07:36:08.258Z,63.91
2018-09-09T07:38:35.858Z,64.69
2018-09-09T07:41:03.385Z,63.63
2018-09-09T07:43:33.001Z,64.34
2018-09-09T07:46:02.537Z,63.51
2018-09-09T07:48:30.038Z,61.86
2018-09-09T07:53:23.670Z,62.77
2018-09-09T07:55:51.211Z,62.82
2018-09-09T07:58:18.802Z,63.58
2018-09-09T08:00:46.412Z,62.29
2018-09-09T08:03:13.933Z,62.57
2018-09-09T08:05:41.516Z,62.70
2018-09-09T08:08:09.058Z,63.10
2018-09-09T08:10:36.599Z,62.93
2018-09-09T08:13:04.173Z,63.44
2018-09-09T08:15:31.697Z,62.74
2018-09-09T08:17:59.433Z,63.69
2018-09-09T08:20:26.938Z,63.77
2018-09-09T08:22:54.525Z,63.03
2018-09-09T08:25:22.188Z,63.00
2018-09-09T08:27:49.713Z,62.48
2018-09-09T08:30:21.170Z,62.94
2018-09-09T08:32:48.689Z,62.36
2018-09-09T08:35:16.269Z,63.31
2018-09-09T08:37:43.845Z,61.89
2018-09-09T08:40:11.420Z,62.08
2018-09-09T08:42:39.003Z,62.60
2018-09-09T08:45:06.512Z,61.20
2018-09-09T08:47:34.096Z,62.84
2018-09-09T08:50:02.607Z,61.97
2018-09-09T08:52:30.178Z,62.09
2018-09-09T08:54:57.864Z,63.11
2018-09-09T08:57:25.471Z,62.10
2018-09-09T08:59:53.146Z,61.87
2018-09-09T09:02:25.166Z,61.87
2018-09-09T09:04:52.745Z,61.77
2018-09-09T09:07:20.329Z,61.55
2018-09-09T09:09:47.860Z,61.69
2018-09-09T09:12:15.499Z,61.24
2018-09-09T09:14:43.057Z,61.91
2018-09-09T09:17:10.645Z,61.92
2018-09-09T09:19:38.232Z,61.68
2018-09-09T09:22:05.770Z,61.28
2018-09-09T09:24:35.403Z,61.17
2018-09-09T09:27:03.041Z,61.23
2018-09-09T09:29:30.579Z,61.40
2018-09-09T09:31:58.097Z,60.59
2018-09-09T09:34:25.680Z,60.20
2018-09-09T09:36:53.214Z,60.64
2018-09-09T09:39:20.839Z,60.00
2018-09-09T09:41:48.583Z,59.96
2018-09-09T09:44:16.108Z,58.68
2018-09-09T09:46:43.699Z,59.85
2018-09-09T09:49:11.900Z,59.41
2018-09-09T09:51:39.473Z,58.65
2018-09-09T09:54:06.990Z,59.07
2018-09-09T09:56:34.562Z,59.31
2018-09-09T09:59:02.229Z,58.86
2018-09-09T10:01:29.796Z,59.14
2018-09-09T10:03:57.336Z,58.85
2018-09-09T10:06:24.974Z,58.83
2018-09-09T10:08:52.565Z,58.19
2018-09-09T10:11:20.366Z,57.89
2018-09-09T10:13:51.675Z,58.33
2018-09-09T10:16:20.531Z,58.51
2018-09-09T10:18:49.370Z,58.05
2018-09-09T10:21:18.185Z,57.78
2018-09-09T10:23:45.809Z,58.69
2018-09-09T10:26:13.523Z,58.31
2018-09-09T10:28:42.203Z,57.32
2018-09-09T10:31:10.925Z,56.99
2018-09-09T10:33:39.651Z,56.65
2018-09-09T10:36:08.500Z,56.81
2018-09-09T10:38:37.355Z,57.05
2018-09-09T10:41:05.014Z,57.42
2018-09-09T10:43:32.601Z,56.17
2018-09-09T10:46:01.348Z,55.04
2018-09-09T10:48:28.970Z,55.70
2018-09-09T10:50:57.608Z,56.20
2018-09-09T10:53:29.797Z,55.10
2018-09-09T10:55:57.545Z,56.04
2018-09-09T10:58:25.264Z,56.00
2018-09-09T11:00:53.108Z,56.09
2018-09-09T11:03:20.652Z,55.58
2018-09-09T11:05:48.337Z,56.79
2018-09-09T11:08:16.116Z,55.91
2018-09-09T11:10:43.855Z,55.30
2018-09-09T11:13:11.428Z,55.85
2018-09-09T11:15:39.266Z,55.53
2018-09-09T11:18:08.127Z,55.15
2018-09-09T11:20:35.819Z,55.81
2018-09-09T11:23:03.354Z,55.94
2018-09-09T11:25:30.905Z,55.58
2018-09-09T11:27:58.548Z,55.91
2018-09-09T11:30:26.130Z,55.68
2018-09-09T11:32:53.699Z,55.35
2018-09-09T11:35:21.487Z,56.09
2018-09-09T11:37:49.174Z,54.62
2018-09-09T11:40:17.516Z,56.05
2018-09-09T11:42:48.912Z,55.24
2018-09-09T11:45:16.551Z,54.79
2018-09-09T11:47:44.108Z,55.02
2018-09-09T11:50:11.658Z,53.96
2018-09-09T11:52:39.221Z,54.89
2018-09-09T11:55:06.804Z,54.80
2018-09-09T11:57:34.410Z,54.09
2018-09-09T12:00:02.241Z,54.33
2018-09-09T12:02:29.817Z,54.98
2018-09-09T12:04:57.345Z,54.09
2018-09-09T12:07:24.893Z,54.53
2018-09-09T12:09:52.633Z,54.31
2018-09-09T12:12:20.152Z,54.15
2018-09-09T12:14:47.715Z,53.28
2018-09-09T12:17:15.274Z,54.71
2018-09-09T12:19:42.843Z,53.55
2018-09-09T12:22:10.380Z,53.42
2018-09-09T12:24:37.967Z,53.51
2018-09-09T12:27:08.800Z,53.84
2018-09-09T12:29:36.355Z,55.12
2018-09-09T12:32:03.938Z,53.93
2018-09-09T12:34:31.484Z,53.59
2018-09-09T12:36:59.067Z,54.35
2018-09-09T12:39:26.641Z,53.72
2018-09-09T12:41:54.219Z,54.06
2018-09-09T12:44:39.490Z,54.10
2018-09-09T12:47:23.854Z,53.03
2018-09-09T12:49:51.435Z,52.15
2018-09-09T12:52:18.983Z,52.38
2018-09-09T12:54:46.513Z,53.18
2018-09-09T12:57:14.127Z,52.19
2018-09-09T12:59:41.642Z,51.68
2018-09-09T13:02:09.166Z,52.46
2018-09-09T13:04:36.752Z,51.08
2018-09-09T13:07:04.271Z,51.93
2018-09-09T13:09:31.831Z,51.41
2018-09-09T13:11:59.383Z,51.48
2018-09-09T13:14:26.935Z,52.12
2018-09-09T13:16:54.482Z,51.41
2018-09-09T13:19:22.068Z,51.44
2018-09-09T13:21:50.684Z,51.80
2018-09-09T13:24:18.253Z,52.30
2018-09-09T13:26:45.782Z,52.31
2018-09-09T13:29:13.363Z,52.51
2018-09-09T13:31:40.902Z,51.96
2018-09-09T13:34:08.489Z,52.24
2018-09-09T13:36:36.005Z,52.83
2018-09-09T13:39:03.572Z,52.33
2018-09-09T13:41:31.157Z,52.66
2018-09-09T13:43:58.673Z,52.31
2018-09-09T13:46:26.250Z,51.78
2018-09-09T13:48:53.780Z,53.14
2018-09-09T13:51:21.305Z,52.67
2018-09-09T13:53:48.869Z,51.47
2018-09-09T13:56:16.438Z,50.94
2018-09-09T13:58:44.075Z,50.73
2018-09-09T14:01:11.604Z,51.24
2018-09-09T14:03:39.195Z,51.30
2018-09-09T14:06:06.799Z,51.67
2018-09-09T14:08:34.416Z,51.34
2018-09-09T14:11:02.023Z,51.60
2018-09-09T14:13:29.531Z,52.04
2018-09-09T14:16:05.849Z,52.53
2018-09-09T14:18:33.376Z,52.28
2018-09-09T14:21:00.974Z,51.83
2018-09-09T14:23:28.486Z,51.47
2018-09-09T14:25:56.054Z,52.93
2018-09-09T14:28:23.667Z,51.90
2018-09-09T14:30:51.291Z,52.56
2018-09-09T14:33:18.819Z,52.00
2018-09-09T14:35:46.370Z,51.76
2018-09-09T14:38:14.906Z,52.26
2018-09-09T14:40:42.490Z,52.12
2018-09-09T14:43:10.021Z,52.30
2018-09-09T14:45:37.591Z,52.29
2018-09-09T14:48:05.112Z,51.77
2018-09-09T14:50:32.631Z,52.25
2018-09-09T14:53:00.228Z,51.83
2018-09-09T14:55:27.786Z,52.16
2018-09-09T14:57:55.341Z,52.06
2018-09-09T15:00:22.914Z,52.27
2018-09-09T15:02:50.506Z,52.49
2018-09-09T15:05:18.041Z,51.46
2018-09-09T15:07:45.614Z,51.84
2018-09-09T15:10:13.141Z,51.76
2018-09-09T15:12:40.693Z,52.15
2018-09-09T15:15:08.250Z,52.28
2018-09-09T15:17:35.820Z,52.56
2018-09-09T15:20:03.399Z,53.42
2018-09-09T15:22:31.045Z,53.74
2018-09-09T15:24:58.538Z,52.80
2018-09-09T15:27:26.154Z,52.47
2018-09-09T15:29:54.063Z,53.29
2018-09-09T15:32:21.593Z,52.72
2018-09-09T15:34:49.098Z,52.36
2018-09-09T15:37:16.680Z,52.26
2018-09-09T15:39:44.209Z,52.30
2018-09-09T15:42:11.789Z,54.03
2018-09-09T15:44:39.328Z,53.53
2018-09-09T15:47:10.819Z,53.97
2018-09-09T15:49:38.337Z,53.29
2018-09-09T15:52:05.936Z,53.75
2018-09-09T15:54:33.501Z,53.72
2018-09-09T15:57:01.072Z,53.64
2018-09-09T15:59:30.800Z,53.63
2018-09-09T16:01:58.335Z,53.73
2018-09-09T16:04:25.925Z,53.79
2018-09-09T16:06:53.473Z,54.47
2018-09-09T16:09:21.031Z,54.41
2018-09-09T16:11:48.586Z,52.97
2018-09-09T16:14:16.174Z,53.38
2018-09-09T16:16:43.727Z,53.15
2018-09-09T16:19:11.245Z,52.34
2018-09-09T16:21:38.825Z,52.45
2018-09-09T16:24:06.351Z,50.26
2018-09-09T16:26:33.924Z,50.53
2018-09-09T16:29:01.490Z,50.18
2018-09-09T16:31:29.011Z,50.26
2018-09-09T16:33:56.561Z,49.91
2018-09-09T16:36:24.106Z,50.02
2018-09-09T16:38:51.673Z,50.84
2018-09-09T16:41:19.252Z,50.99
2018-09-09T16:43:46.780Z,51.21
2018-09-09T16:46:14.369Z,51.88
2018-09-09T16:48:41.871Z,51.30
2018-09-09T16:51:09.475Z,52.51
2018-09-09T16:53:37.031Z,52.28
2018-09-09T16:56:04.542Z,51.29
2018-09-09T16:58:32.103Z,52.32
2018-09-09T17:00:59.689Z,53.80
2018-09-09T17:03:27.259Z,52.89
2018-09-09T17:05:54.824Z,52.65
2018-09-09T17:08:22.560Z,52.47
2018-09-09T17:10:50.114Z,52.58
2018-09-09T17:13:17.689Z,52.78
2018-09-09T17:15:45.244Z,52.89
2018-09-09T17:18:12.833Z,53.52
2018-09-09T17:20:40.358Z,52.88
2018-09-09T17:23:07.903Z,53.41
2018-09-09T17:25:35.411Z,53.97
2018-09-09T17:28:03.119Z,53.50
2018-09-09T17:30:30.618Z,53.36
2018-09-09T17:32:58.177Z,53.98
2018-09-09T17:35:25.788Z,53.96
2018-09-09T17:37:53.318Z,53.11
2018-09-09T17:40:20.828Z,53.46
2018-09-09T17:42:48.398Z,54.04
2018-09-09T17:45:15.939Z,54.20
2018-09-09T17:47:43.549Z,54.28
2018-09-09T17:50:11.098Z,53.90
2018-09-09T17:52:38.643Z,54.35
2018-09-09T17:55:06.174Z,54.34
2018-09-09T17:57:33.772Z,53.97
2018-09-09T18:00:01.334Z,54.46
2018-09-09T18:02:28.880Z,54.01
2018-09-09T18:04:56.433Z,54.50
2018-09-09T18:07:24.051Z,54.42
2018-09-09T18:09:51.574Z,54.41
2018-09-09T18:12:19.150Z,54.89
2018-09-09T18:14:46.808Z,55.33
2018-09-09T18:17:14.395Z,55.31
2018-09-09T18:19:41.917Z,55.48
2018-09-09T18:22:09.488Z,55.33
2018-09-09T18:24:37.022Z,55.21
2018-09-09T18:27:04.606Z,56.00
2018-09-09T18:29:33.202Z,55.08
2018-09-09T18:32:00.785Z,55.71
2018-09-09T18:34:28.313Z,56.09
2018-09-09T18:36:55.842Z,56.18
2018-09-09T18:39:23.432Z,55.58
2018-09-09T18:41:51.115Z,56.29
2018-09-09T18:44:18.869Z,56.12
2018-09-09T18:46:47.522Z,56.12
2018-09-09T18:49:15.168Z,56.36
2018-09-09T18:51:42.773Z,56.39
2018-09-09T18:54:12.674Z,56.68
2018-09-09T18:56:41.454Z,56.87
2018-09-09T18:59:10.975Z,56.78
2018-09-09T19:01:40.644Z,56.81
2018-09-09T19:04:09.280Z,56.40
2018-09-09T19:06:36.849Z,56.27
2018-09-09T19:09:04.570Z,56.10
2018-09-09T19:11:32.304Z,56.00
2018-09-09T19:13:59.902Z,56.32
2018-09-09T19:16:27.398Z,56.29
2018-09-09T19:18:55.055Z,57.08
2018-09-09T19:21:22.609Z,56.88
2018-09-09T19:23:50.204Z,56.93
2018-09-09T19:26:18.332Z,57.21
2018-09-09T19:28:45.972Z,57.03
2018-09-09T19:31:13.480Z,58.05
2018-09-09T19:33:41.275Z,58.95
2018-09-09T19:36:08.803Z,58.70
2018-09-09T19:38:36.435Z,58.34
2018-09-09T19:41:03.984Z,58.03
2018-09-09T19:43:31.720Z,58.15
2018-09-09T19:45:59.297Z,58.48
2018-09-09T19:48:26.909Z,58.77
2018-09-09T19:50:54.617Z,59.45
2018-09-09T19:53:22.150Z,59.73
2018-09-09T19:55:49.714Z,59.79
2018-09-09T19:58:17.345Z,59.91
2018-09-09T20:00:45.124Z,59.15
2018-09-09T20:03:14.761Z,59.88
2018-09-09T20:05:43.085Z,60.02
2018-09-09T20:08:10.643Z,60.08
2018-09-09T20:10:38.190Z,59.98
2018-09-09T20:13:05.833Z,59.86
2018-09-09T20:15:33.428Z,60.54
2018-09-09T20:18:01.049Z,60.54
2018-09-09T20:20:28.636Z,60.38
2018-09-09T20:22:56.246Z,60.15
2018-09-09T20:25:23.751Z,60.02
2018-09-09T20:27:51.300Z,59.69
2018-09-09T20:30:18.977Z,59.93
2018-09-09T20:32:46.567Z,59.38
2018-09-09T20:35:14.107Z,59.76
2018-09-09T20:37:41.645Z,59.82
2018-09-09T20:40:09.228Z,59.91
2018-09-09T20:42:36.735Z,59.80
2018-09-09T20:45:04.335Z,59.74
2018-09-09T20:47:31.915Z,59.23
2018-09-09T20:49:59.458Z,59.56
2018-09-09T20:52:27.008Z,59.67
2018-09-09T20:54:54.529Z,59.15
2018-09-09T20:57:22.098Z,59.35
2018-09-09T20:59:49.710Z,59.32
2018-09-09T21:02:17.229Z,58.88
2018-09-09T21:04:44.776Z,59.59
2018-09-09T21:07:12.352Z,59.58
2018-09-09T21:09:39.891Z,59.27
2018-09-09T21:12:07.624Z,59.26
2018-09-09T21:14:35.208Z,59.89
2018-09-09T21:17:02.759Z,59.35
2018-09-09T21:19:30.316Z,59.43
2018-09-09T21:21:57.881Z,59.84
2018-09-09T21:24:26.203Z,60.04
2018-09-09T21:26:53.958Z,60.03
2018-09-09T21:29:21.660Z,60.13
2018-09-09T21:31:49.233Z,60.06
2018-09-09T21:34:16.801Z,60.05
2018-09-09T21:36:44.331Z,60.33
2018-09-09T21:39:11.879Z,60.81
2018-09-09T21:41:39.574Z,60.38
2018-09-09T21:44:07.156Z,60.93
2018-09-09T21:46:34.781Z,61.33
2018-09-09T21:49:02.360Z,61.46
2018-09-09T21:51:29.897Z,61.95
2018-09-09T21:53:57.477Z,61.51
2018-09-09T21:56:25.003Z,61.15
2018-09-09T21:58:52.566Z,61.13
2018-09-09T22:01:20.127Z,61.33
2018-09-09T22:03:47.823Z,60.64
2018-09-09T22:06:16.423Z,60.69
2018-09-09T22:08:43.951Z,60.68
2018-09-09T22:11:11.546Z,60.55
2018-09-09T22:13:39.166Z,61.14
2018-09-09T22:16:06.767Z,60.67
2018-09-09T22:18:34.287Z,60.30
2018-09-09T22:21:02.795Z,60.28
2018-09-09T22:23:30.363Z,60.57
2018-09-09T22:25:57.923Z,60.11
2018-09-09T22:28:25.472Z,60.89
2018-09-09T22:30:53.028Z,60.50
2018-09-09T22:33:20.553Z,60.17
2018-09-09T22:35:48.118Z,61.36
2018-09-09T22:38:15.761Z,60.16
2018-09-09T22:40:43.306Z,60.76
2018-09-09T22:43:10.995Z,60.28
2018-09-09T22:45:38.736Z,61.64
2018-09-09T22:48:06.297Z,60.44
2018-09-09T22:50:34.890Z,60.54
2018-09-09T22:53:02.430Z,60.46
2018-09-09T22:55:30.017Z,60.25
2018-09-09T22:57:57.588Z,61.53
2018-09-09T23:00:25.119Z,60.49
2018-09-09T23:02:52.770Z,60.70
2018-09-09T23:05:20.381Z,61.26
2018-09-09T23:07:47.931Z,61.58
2018-09-09T23:10:15.478Z,61.57
2018-09-09T23:12:43.019Z,61.12
2018-09-09T23:15:10.716Z,61.07
2018-09-09T23:17:38.297Z,61.16
2018-09-09T23:20:05.880Z,61.18
2018-09-09T23:22:33.439Z,61.27
2018-09-09T23:25:01.038Z,60.71
2018-09-09T23:27:28.566Z,61.52
2018-09-09T23:29:56.122Z,62.01
2018-09-09T23:32:23.706Z,61.62
2018-09-09T23:34:51.283Z,61.45
2018-09-09T23:37:18.826Z,61.95
2018-09-09T23:39:46.398Z,61.87
2018-09-09T23:42:13.903Z,61.91
2018-09-09T23:44:41.460Z,61.62
2018-09-09T23:47:12.892Z,61.63
2018-09-09T23:49:40.473Z,62.55
2018-09-09T23:52:08.121Z,62.03
2018-09-09T23:54:35.681Z,61.75
2018-09-09T23:57:03.310Z,61.76
2018-09-09T23:59:30.873Z,61.57
